createdAt,value
2023-06-02T00:00:48.067Z,193.56
2023-06-02T00:01:48.086Z,195.07
2023-06-02T00:02:48.223Z,167.50
2023-06-02T00:03:48.081Z,158.10
2023-06-02T00:04:48.084Z,155.36
2023-06-02T00:05:48.253Z,148.15
2023-06-02T00:06:48.207Z,145.01
2023-06-02T00:07:48.229Z,144.67
2023-06-02T00:08:48.296Z,148.44
2023-06-02T00:09:48.286Z,162.82
2023-06-02T00:10:48.336Z,185.17
2023-06-02T00:11:48.399Z,189.49
2023-06-02T00:12:48.411Z,173.71
2023-06-02T00:13:48.464Z,193.92
2023-06-02T00:14:48.472Z,199.53
2023-06-02T00:15:48.528Z,194.87
2023-06-02T00:16:48.587Z,179.38
2023-06-02T00:17:48.627Z,175.79
2023-06-02T00:18:48.560Z,170.54
2023-06-02T00:19:48.617Z,167.65
2023-06-02T00:20:48.658Z,165.97
2023-06-02T00:21:48.699Z,170.03
2023-06-02T00:22:48.694Z,170.41
2023-06-02T00:23:48.744Z,176.20
2023-06-02T00:24:48.717Z,173.25
2023-06-02T00:25:48.737Z,177.22
2023-06-02T00:26:48.754Z,173.61
2023-06-02T00:27:48.787Z,198.39
2023-06-02T00:28:48.774Z,194.25
2023-06-02T00:29:48.735Z,172.40
2023-06-02T00:30:49.398Z,168.44
2023-06-02T00:31:48.920Z,159.36
2023-06-02T00:32:48.892Z,158.56
2023-06-02T00:33:48.898Z,166.00
2023-06-02T00:34:48.892Z,159.03
2023-06-02T00:35:50.638Z,153.03
2023-06-02T00:36:49.020Z,158.90
2023-06-02T00:37:49.029Z,163.32
2023-06-02T00:38:49.115Z,152.29
2023-06-02T00:39:49.115Z,153.34
2023-06-02T00:40:49.143Z,160.93
2023-06-02T00:41:49.222Z,151.80
2023-06-02T00:42:49.260Z,152.41
2023-06-02T00:43:49.305Z,151.17
2023-06-02T00:44:49.357Z,146.62
2023-06-02T00:45:49.439Z,156.52
2023-06-02T00:46:49.495Z,146.71
2023-06-02T00:47:49.557Z,139.68
2023-06-02T00:48:49.519Z,139.28
2023-06-02T00:49:49.604Z,158.37
2023-06-02T00:50:49.602Z,178.36
2023-06-02T00:51:49.674Z,189.45
2023-06-02T00:52:49.681Z,178.22
2023-06-02T00:53:49.715Z,174.69
2023-06-02T00:54:49.734Z,165.82
2023-06-02T00:55:49.807Z,164.91
2023-06-02T00:56:49.790Z,177.59
2023-06-02T00:57:49.809Z,175.55
2023-06-02T00:58:49.838Z,166.80
2023-06-02T00:59:49.884Z,177.10
2023-06-02T01:00:49.948Z,199.28
2023-06-02T01:01:49.933Z,177.27
2023-06-02T01:02:49.940Z,196.06
2023-06-02T01:03:49.993Z,206.03
2023-06-02T01:04:49.994Z,214.01
2023-06-02T01:05:50.052Z,212.73
2023-06-02T01:06:50.109Z,194.95
2023-06-02T01:07:50.102Z,194.76
2023-06-02T01:08:50.111Z,198.46
2023-06-02T01:09:50.135Z,180.13
2023-06-02T01:10:50.180Z,173.63
2023-06-02T01:11:50.223Z,172.70
2023-06-02T01:12:50.199Z,198.48
2023-06-02T01:13:50.325Z,181.53
2023-06-02T01:14:50.262Z,168.17
2023-06-02T01:15:50.386Z,164.25
2023-06-02T01:16:50.420Z,166.85
2023-06-02T01:17:50.437Z,162.25
2023-06-02T01:18:50.406Z,162.69
2023-06-02T01:19:50.457Z,163.87
2023-06-02T01:20:50.717Z,158.56
2023-06-02T01:21:50.532Z,176.60
2023-06-02T01:22:50.452Z,192.03
2023-06-02T01:23:50.489Z,202.13
2023-06-02T01:24:50.555Z,183.62
2023-06-02T01:25:50.552Z,166.99
2023-06-02T01:26:50.591Z,161.81
2023-06-02T01:27:50.649Z,178.71
2023-06-02T01:28:50.653Z,191.94
2023-06-02T01:29:50.650Z,177.84
2023-06-02T01:30:50.725Z,180.26
2023-06-02T01:31:50.767Z,185.43
2023-06-02T01:32:50.796Z,199.58
2023-06-02T01:33:50.783Z,208.83
2023-06-02T01:34:51.149Z,204.01
2023-06-02T01:35:50.902Z,198.05
2023-06-02T01:36:50.905Z,195.28
2023-06-02T01:37:50.950Z,178.96
2023-06-02T01:38:50.982Z,174.07
2023-06-02T01:39:51.010Z,169.61
2023-06-02T01:40:51.018Z,196.12
2023-06-02T01:41:51.098Z,200.00
2023-06-02T01:42:51.134Z,186.08
2023-06-02T01:43:51.139Z,174.71
2023-06-02T01:44:51.157Z,177.56
2023-06-02T01:45:51.233Z,179.92
2023-06-02T01:46:51.267Z,183.77
2023-06-02T01:47:51.288Z,182.74
2023-06-02T01:48:51.262Z,175.31
2023-06-02T01:49:51.253Z,178.61
2023-06-02T01:50:51.360Z,178.88
2023-06-02T01:51:51.300Z,171.64
2023-06-02T01:52:51.389Z,169.22
2023-06-02T01:53:51.385Z,168.36
2023-06-02T01:54:51.490Z,169.67
2023-06-02T01:55:51.528Z,173.12
2023-06-02T01:56:51.540Z,173.10
2023-06-02T01:57:51.613Z,176.91
2023-06-02T01:58:51.656Z,177.65
2023-06-02T01:59:51.731Z,177.57
2023-06-02T02:00:51.763Z,197.81
2023-06-02T02:01:51.837Z,209.90
2023-06-02T02:02:52.001Z,201.17
2023-06-02T02:03:51.939Z,184.86
2023-06-02T02:04:51.860Z,177.15
2023-06-02T02:05:51.879Z,174.16
2023-06-02T02:06:51.908Z,185.79
2023-06-02T02:07:51.973Z,193.02
2023-06-02T02:08:51.930Z,188.71
2023-06-02T02:09:51.967Z,182.33
2023-06-02T02:10:52.014Z,186.37
2023-06-02T02:11:52.016Z,186.28
2023-06-02T02:12:52.051Z,190.14
2023-06-02T02:13:52.074Z,190.49
2023-06-02T02:14:52.138Z,185.79
2023-06-02T02:15:52.223Z,188.47
2023-06-02T02:16:52.252Z,185.86
2023-06-02T02:17:52.268Z,195.09
2023-06-02T02:18:52.230Z,185.41
2023-06-02T02:19:52.330Z,183.64
2023-06-02T02:20:52.367Z,188.47
2023-06-02T02:21:52.486Z,183.46
2023-06-02T02:22:52.429Z,182.40
2023-06-02T02:23:52.525Z,179.66
2023-06-02T02:24:52.536Z,178.48
2023-06-02T02:25:52.568Z,175.97
2023-06-02T02:26:52.555Z,169.65
2023-06-02T02:27:52.598Z,171.63
2023-06-02T02:28:52.573Z,184.62
2023-06-02T02:29:52.590Z,192.32
2023-06-02T02:30:52.673Z,184.66
2023-06-02T02:31:52.939Z,179.39
2023-06-02T02:32:52.775Z,178.23
2023-06-02T02:33:52.734Z,174.10
2023-06-02T02:34:52.812Z,175.36
2023-06-02T02:35:52.759Z,187.01
2023-06-02T02:36:52.814Z,182.00
2023-06-02T02:37:52.841Z,178.45
2023-06-02T02:38:52.854Z,180.96
2023-06-02T02:39:52.880Z,188.41
2023-06-02T02:40:52.932Z,188.44
2023-06-02T02:41:52.951Z,187.66
2023-06-02T02:42:52.934Z,183.64
2023-06-02T02:43:52.952Z,186.26
2023-06-02T02:44:52.976Z,185.77
2023-06-02T02:45:53.025Z,190.37
2023-06-02T02:46:53.035Z,186.51
2023-06-02T02:47:53.126Z,186.24
2023-06-02T02:48:53.144Z,197.69
2023-06-02T02:49:53.158Z,186.72
2023-06-02T02:50:53.213Z,184.73
2023-06-02T02:51:53.271Z,185.53
2023-06-02T02:52:53.338Z,186.05
2023-06-02T02:53:53.414Z,184.12
2023-06-02T02:54:53.436Z,193.27
2023-06-02T02:55:53.511Z,189.51
2023-06-02T02:56:53.548Z,183.01
2023-06-02T02:57:53.572Z,182.78
2023-06-02T02:58:53.582Z,182.80
2023-06-02T02:59:53.671Z,184.61
2023-06-02T03:00:53.755Z,184.90
2023-06-02T03:01:53.752Z,188.05
2023-06-02T03:02:53.819Z,188.05
2023-06-02T03:03:53.825Z,186.64
2023-06-02T03:04:53.843Z,187.35
2023-06-02T03:05:53.926Z,191.49
2023-06-02T03:06:53.978Z,187.16
2023-06-02T03:07:54.005Z,184.16
2023-06-02T03:08:53.982Z,185.84
2023-06-02T03:09:54.066Z,187.48
2023-06-02T03:10:54.077Z,194.41
2023-06-02T03:11:54.059Z,191.51
2023-06-02T03:12:54.072Z,190.50
2023-06-02T03:13:54.126Z,195.77
2023-06-02T03:14:54.153Z,210.59
2023-06-02T03:15:54.176Z,201.99
2023-06-02T03:16:54.247Z,204.18
2023-06-02T03:17:54.263Z,197.92
2023-06-02T03:18:54.252Z,191.61
2023-06-02T03:19:54.313Z,191.82
2023-06-02T03:20:54.329Z,187.29
2023-06-02T03:21:54.370Z,183.96
2023-06-02T03:22:54.348Z,188.95
2023-06-02T03:23:54.429Z,191.46
2023-06-02T03:24:54.372Z,186.04
2023-06-02T03:25:54.417Z,190.67
2023-06-02T03:26:54.418Z,193.12
2023-06-02T03:27:54.471Z,196.31
2023-06-02T03:28:54.481Z,186.17
2023-06-02T03:29:54.517Z,187.76
2023-06-02T03:30:54.537Z,186.50
2023-06-02T03:31:54.553Z,184.92
2023-06-02T03:32:54.587Z,183.40
2023-06-02T03:33:54.620Z,182.98
2023-06-02T03:34:54.595Z,183.53
2023-06-02T03:35:54.650Z,183.59
2023-06-02T03:36:54.654Z,183.20
2023-06-02T03:37:54.689Z,189.82
2023-06-02T03:38:54.639Z,184.14
2023-06-02T03:39:54.656Z,188.92
2023-06-02T03:40:54.669Z,188.61
2023-06-02T03:41:54.683Z,195.96
2023-06-02T03:42:54.687Z,190.86
2023-06-02T03:43:56.673Z,187.96
2023-06-02T03:44:54.757Z,185.17
2023-06-02T03:45:54.820Z,185.80
2023-06-02T03:46:54.867Z,185.00
2023-06-02T03:47:54.861Z,184.01
2023-06-02T03:48:54.838Z,183.56
2023-06-02T03:49:54.861Z,183.86
2023-06-02T03:50:54.970Z,184.68
2023-06-02T03:51:55.007Z,181.28
2023-06-02T03:52:55.009Z,182.74
2023-06-02T03:53:55.058Z,182.95
2023-06-02T03:54:55.100Z,184.35
2023-06-02T03:55:55.135Z,183.97
2023-06-02T03:56:55.098Z,182.50
2023-06-02T03:57:55.156Z,186.41
2023-06-02T03:58:55.167Z,188.70
2023-06-02T03:59:55.185Z,204.93
2023-06-02T04:00:55.232Z,207.19
2023-06-02T04:01:55.264Z,198.65
2023-06-02T04:02:55.250Z,188.52
2023-06-02T04:03:55.360Z,189.83
2023-06-02T04:04:55.302Z,194.73
2023-06-02T04:05:55.255Z,202.79
2023-06-02T04:06:55.313Z,199.00
2023-06-02T04:07:55.382Z,202.66
2023-06-02T04:08:55.421Z,193.22
2023-06-02T04:09:55.480Z,195.55
2023-06-02T04:10:55.498Z,208.93
2023-06-02T04:11:55.528Z,190.93
2023-06-02T04:12:55.569Z,187.73
2023-06-02T04:13:55.628Z,189.07
2023-06-02T04:14:55.633Z,183.13
2023-06-02T04:15:55.636Z,180.18
2023-06-02T04:16:55.814Z,178.67
2023-06-02T04:17:55.763Z,184.58
2023-06-02T04:18:55.802Z,183.66
2023-06-02T04:19:55.782Z,189.52
2023-06-02T04:20:55.828Z,189.68
2023-06-02T04:21:55.867Z,195.49
2023-06-02T04:22:55.846Z,189.09
2023-06-02T04:23:55.863Z,188.04
2023-06-02T04:24:55.869Z,192.88
2023-06-02T04:25:55.920Z,200.87
2023-06-02T04:26:55.918Z,194.33
2023-06-02T04:27:55.975Z,186.52
2023-06-02T04:28:55.986Z,184.55
2023-06-02T04:29:55.979Z,189.35
2023-06-02T04:30:55.954Z,192.64
2023-06-02T04:31:56.022Z,190.37
2023-06-02T04:32:56.046Z,188.98
2023-06-02T04:33:56.090Z,187.03
2023-06-02T04:34:56.084Z,192.04
2023-06-02T04:35:56.086Z,195.25
2023-06-02T04:36:56.075Z,189.63
2023-06-02T04:37:56.097Z,188.54
2023-06-02T04:38:56.102Z,192.04
2023-06-02T04:39:56.136Z,205.02
2023-06-02T04:40:56.227Z,202.01
2023-06-02T04:41:56.226Z,184.85
2023-06-02T04:42:56.198Z,194.32
2023-06-02T04:43:56.243Z,192.34
2023-06-02T04:44:56.280Z,178.24
2023-06-02T04:45:56.366Z,173.79
2023-06-02T04:46:56.426Z,172.49
2023-06-02T04:47:56.388Z,172.69
2023-06-02T04:48:56.370Z,173.47
2023-06-02T04:49:56.401Z,169.92
2023-06-02T04:50:56.498Z,168.04
2023-06-02T04:51:56.504Z,169.62
2023-06-02T04:52:56.513Z,178.10
2023-06-02T04:53:56.546Z,179.92
2023-06-02T04:54:56.592Z,174.84
2023-06-02T04:55:56.626Z,190.42
2023-06-02T04:56:56.644Z,187.72
2023-06-02T04:57:56.658Z,206.00
2023-06-02T04:58:56.706Z,189.86
2023-06-02T04:59:56.683Z,180.87
2023-06-02T05:00:56.743Z,175.20
2023-06-02T05:01:56.874Z,166.79
2023-06-02T05:02:56.911Z,167.59
2023-06-02T05:03:56.908Z,180.37
2023-06-02T05:04:56.853Z,178.69
2023-06-02T05:05:56.921Z,167.36
2023-06-02T05:06:56.898Z,174.04
2023-06-02T05:07:56.900Z,181.14
2023-06-02T05:08:56.958Z,185.10
2023-06-02T05:09:56.976Z,183.75
2023-06-02T05:10:57.051Z,182.61
2023-06-02T05:11:57.105Z,170.00
2023-06-02T05:12:57.119Z,176.23
2023-06-02T05:13:57.186Z,172.14
2023-06-02T05:14:57.244Z,184.38
2023-06-02T05:15:57.248Z,175.92
2023-06-02T05:16:57.266Z,182.37
2023-06-02T05:17:57.352Z,186.44
2023-06-02T05:18:57.291Z,189.34
2023-06-02T05:19:57.322Z,187.76
2023-06-02T05:20:57.436Z,164.87
2023-06-02T05:21:57.445Z,179.03
2023-06-02T05:22:57.443Z,167.89
2023-06-02T05:23:57.432Z,190.19
2023-06-02T05:24:57.465Z,192.01
2023-06-02T05:25:57.545Z,179.99
2023-06-02T05:26:57.638Z,182.81
2023-06-02T05:27:57.644Z,189.28
2023-06-02T05:28:57.695Z,176.87
2023-06-02T05:29:57.761Z,183.25
2023-06-02T05:30:57.799Z,171.11
2023-06-02T05:31:57.918Z,172.27
2023-06-02T05:32:57.918Z,192.10
2023-06-02T05:33:57.838Z,186.24
2023-06-02T05:34:57.916Z,170.63
2023-06-02T05:35:58.175Z,168.93
2023-06-02T05:36:58.010Z,164.12
2023-06-02T05:37:58.064Z,152.63
2023-06-02T05:38:58.119Z,154.56
2023-06-02T05:39:58.246Z,142.01
2023-06-02T05:40:58.300Z,136.07
2023-06-02T05:41:58.293Z,159.81
2023-06-02T05:42:58.280Z,154.47
2023-06-02T05:43:58.272Z,153.04
2023-06-02T05:44:58.263Z,145.11
2023-06-02T05:45:58.379Z,165.41
2023-06-02T05:46:58.377Z,181.75
2023-06-02T05:47:58.564Z,187.22
2023-06-02T05:48:58.359Z,183.88
2023-06-02T05:49:58.435Z,166.26
2023-06-02T05:50:58.443Z,156.61
2023-06-02T05:51:58.516Z,135.99
2023-06-02T05:52:58.559Z,152.72
2023-06-02T05:53:58.635Z,144.45
2023-06-02T05:54:58.582Z,140.16
2023-06-02T05:55:58.669Z,160.40
2023-06-02T05:56:58.707Z,138.06
2023-06-02T05:57:58.725Z,165.71
2023-06-02T05:58:58.745Z,166.09
2023-06-02T05:59:58.771Z,146.51
2023-06-02T06:00:58.836Z,158.01
2023-06-02T06:01:58.914Z,165.46
2023-06-02T06:02:59.007Z,164.77
2023-06-02T06:03:59.053Z,142.07
2023-06-02T06:04:58.963Z,142.44
2023-06-02T06:05:59.105Z,151.65
2023-06-02T06:06:59.097Z,148.18
2023-06-02T06:07:59.128Z,154.18
2023-06-02T06:08:59.132Z,149.66
2023-06-02T06:09:59.155Z,157.95
2023-06-02T06:10:59.188Z,146.69
2023-06-02T06:11:59.189Z,146.50
2023-06-02T06:12:59.214Z,147.68
2023-06-02T06:13:59.241Z,161.04
2023-06-02T06:14:59.271Z,161.19
2023-06-02T06:15:59.372Z,153.37
2023-06-02T06:16:59.317Z,146.52
2023-06-02T06:17:59.414Z,156.10
2023-06-02T06:18:59.372Z,158.35
2023-06-02T06:19:59.415Z,159.81
2023-06-02T06:20:59.505Z,164.08
2023-06-02T06:21:59.521Z,152.90
2023-06-02T06:22:59.567Z,156.85
2023-06-02T06:23:59.615Z,175.42
2023-06-02T06:24:59.570Z,166.11
2023-06-02T06:25:59.733Z,160.37
2023-06-02T06:26:59.732Z,153.61
2023-06-02T06:27:59.705Z,139.17
2023-06-02T06:28:59.722Z,136.42
2023-06-02T06:29:59.801Z,162.57
2023-06-02T06:30:59.798Z,154.33
2023-06-02T06:31:59.813Z,163.87
2023-06-02T06:32:59.870Z,149.88
2023-06-02T06:33:59.917Z,136.17
2023-06-02T06:34:59.953Z,137.35
2023-06-02T06:35:59.950Z,135.06
2023-06-02T06:36:59.957Z,129.68
2023-06-02T06:38:07.609Z,117.39
2023-06-02T06:38:59.999Z,117.73
2023-06-02T06:39:59.971Z,119.30
2023-06-02T06:41:00.001Z,109.91
2023-06-02T06:42:00.001Z,112.60
2023-06-02T06:43:05.396Z,133.91
2023-06-02T06:44:00.938Z,118.78
2023-06-02T06:44:59.916Z,120.31
2023-06-02T06:45:59.947Z,120.60
2023-06-02T06:46:59.914Z,137.20
2023-06-02T06:48:00.098Z,142.63
2023-06-02T06:49:00.073Z,143.14
2023-06-02T06:50:00.047Z,123.50
2023-06-02T06:50:59.938Z,135.02
2023-06-02T06:51:59.862Z,119.02
2023-06-02T06:52:59.876Z,113.32
2023-06-02T06:53:59.859Z,93.14
2023-06-02T06:54:59.826Z,110.62
2023-06-02T06:55:59.841Z,97.76
2023-06-02T06:56:59.853Z,99.60
2023-06-02T06:57:59.841Z,110.65
2023-06-02T06:58:59.907Z,114.39
2023-06-02T06:59:59.844Z,139.82
2023-06-02T07:00:59.966Z,123.77
2023-06-02T07:01:59.936Z,106.06
2023-06-02T07:03:00.053Z,92.12
2023-06-02T07:03:59.996Z,113.53
2023-06-02T07:05:00.002Z,94.50
2023-06-02T07:06:00.180Z,97.17
2023-06-02T07:07:00.134Z,96.81
2023-06-02T07:08:00.171Z,120.23
2023-06-02T07:09:00.165Z,123.73
2023-06-02T07:10:00.180Z,148.78
2023-06-02T07:11:00.189Z,112.19
2023-06-02T07:12:00.283Z,99.74
2023-06-02T07:13:00.309Z,88.65
2023-06-02T07:14:14.638Z,89.52
2023-06-02T07:15:01.317Z,84.79
2023-06-02T07:16:00.341Z,80.17
2023-06-02T07:17:00.576Z,78.25
2023-06-02T07:18:01.224Z,91.58
2023-06-02T07:19:07.872Z,117.86
2023-06-02T07:20:00.293Z,90.80
2023-06-02T07:21:00.292Z,93.45
2023-06-02T07:22:00.349Z,91.46
2023-06-02T07:23:00.220Z,91.88
2023-06-02T07:24:01.802Z,102.12
2023-06-02T07:25:00.240Z,112.94
2023-06-02T07:26:00.376Z,109.65
2023-06-02T07:27:00.199Z,100.02
2023-06-02T07:28:00.263Z,94.20
2023-06-02T07:29:00.286Z,79.03
2023-06-02T07:30:00.187Z,70.26
2023-06-02T07:31:09.025Z,75.73
2023-06-02T07:32:01.364Z,69.13
2023-06-02T07:33:00.380Z,72.40
2023-06-02T07:34:00.176Z,81.86
2023-06-02T07:35:00.240Z,79.58
2023-06-02T07:36:00.226Z,70.33
2023-06-02T07:37:00.231Z,98.08
2023-06-02T07:38:00.167Z,93.86
2023-06-02T07:39:00.192Z,95.88
2023-06-02T07:40:00.192Z,108.61
2023-06-02T07:41:00.155Z,95.00
2023-06-02T07:42:00.158Z,90.90
2023-06-02T07:43:00.318Z,79.36
2023-06-02T07:44:00.135Z,71.52
2023-06-02T07:45:00.148Z,58.26
2023-06-02T07:46:00.230Z,71.28
2023-06-02T07:47:00.359Z,67.07
2023-06-02T07:48:00.348Z,56.91
2023-06-02T07:49:00.275Z,62.64
2023-06-02T07:50:00.455Z,58.11
2023-06-02T07:51:00.420Z,53.23
2023-06-02T07:52:00.398Z,72.76
2023-06-02T07:53:00.383Z,81.88
2023-06-02T07:54:00.383Z,92.42
2023-06-02T07:55:00.443Z,63.49
2023-06-02T07:56:00.583Z,73.18
2023-06-02T07:57:00.480Z,67.90
2023-06-02T07:58:00.523Z,69.91
2023-06-02T07:59:00.586Z,78.12
2023-06-02T08:00:00.618Z,59.76
2023-06-02T08:01:00.633Z,52.33
2023-06-02T08:02:00.702Z,43.09
2023-06-02T08:03:00.738Z,56.15
2023-06-02T08:04:00.878Z,42.91
2023-06-02T08:05:00.775Z,44.12
2023-06-02T08:06:00.815Z,46.38
2023-06-02T08:07:00.872Z,67.30
2023-06-02T08:08:00.873Z,54.18
2023-06-02T08:09:00.920Z,46.78
2023-06-02T08:10:00.922Z,50.14
2023-06-02T08:11:00.933Z,62.22
2023-06-02T08:12:00.929Z,73.52
2023-06-02T08:13:00.932Z,39.73
2023-06-02T08:14:00.985Z,50.00
2023-06-02T08:15:01.075Z,115.09
2023-06-02T08:16:20.563Z,76.54
2023-06-02T08:17:02.071Z,77.28
2023-06-02T08:18:01.107Z,77.43
2023-06-02T08:19:01.123Z,75.58
2023-06-02T08:20:01.097Z,64.45
2023-06-02T08:21:01.083Z,93.64
2023-06-02T08:22:01.053Z,66.39
2023-06-02T08:23:01.061Z,56.57
2023-06-02T08:24:01.062Z,47.71
2023-06-02T08:25:01.018Z,43.57
2023-06-02T08:26:01.211Z,64.69
2023-06-02T08:27:00.968Z,73.66
2023-06-02T08:28:00.996Z,54.28
2023-06-02T08:29:01.005Z,70.08
2023-06-02T08:30:01.006Z,59.02
2023-06-02T08:31:01.014Z,50.10
2023-06-02T08:32:01.163Z,41.99
2023-06-02T08:33:01.191Z,54.71
2023-06-02T08:34:01.079Z,87.41
2023-06-02T08:35:01.638Z,65.39
2023-06-02T08:36:01.257Z,56.80
2023-06-02T08:37:01.284Z,60.10
2023-06-02T08:38:01.357Z,53.67
2023-06-02T08:39:01.287Z,56.77
2023-06-02T08:40:01.314Z,91.56
2023-06-02T08:41:01.370Z,80.66
2023-06-02T08:42:01.381Z,81.33
2023-06-02T08:43:01.405Z,90.48
2023-06-02T08:44:01.465Z,66.52
2023-06-02T08:45:01.470Z,56.16
2023-06-02T08:46:01.682Z,61.64
2023-06-02T08:47:01.516Z,36.54
2023-06-02T08:48:01.534Z,52.68
2023-06-02T08:49:01.702Z,63.99
2023-06-02T08:50:01.614Z,104.78
2023-06-02T08:51:01.705Z,103.71
2023-06-02T08:52:01.713Z,95.14
2023-06-02T08:53:01.698Z,140.72
2023-06-02T08:54:03.397Z,89.27
2023-06-02T08:55:01.652Z,75.97
2023-06-02T08:56:01.860Z,96.77
2023-06-02T08:57:01.752Z,91.99
2023-06-02T08:58:01.744Z,99.78
2023-06-02T08:59:01.808Z,65.69
2023-06-02T09:00:01.861Z,69.06
2023-06-02T09:01:01.941Z,44.28
2023-06-02T09:02:01.990Z,53.98
2023-06-02T09:03:01.996Z,125.35
2023-06-02T09:04:02.025Z,67.11
2023-06-02T09:05:02.081Z,102.72
2023-06-02T09:06:02.078Z,67.03
2023-06-02T09:07:02.046Z,53.54
2023-06-02T09:08:02.080Z,75.09
2023-06-02T09:09:02.292Z,66.06
2023-06-02T09:10:02.264Z,50.00
2023-06-02T09:11:02.239Z,96.32
2023-06-02T09:12:02.246Z,125.73
2023-06-02T09:13:02.313Z,143.65
2023-06-02T09:14:02.378Z,99.90
2023-06-02T09:15:02.406Z,105.70
2023-06-02T09:16:02.583Z,90.57
2023-06-02T09:17:02.457Z,92.02
2023-06-02T09:18:02.529Z,52.72
2023-06-02T09:19:02.551Z,71.81
2023-06-02T09:20:02.582Z,61.07
2023-06-02T09:21:02.956Z,35.47
2023-06-02T09:22:02.617Z,26.84
2023-06-02T09:23:02.577Z,28.57
2023-06-02T09:24:12.779Z,47.47
2023-06-02T09:25:03.574Z,47.88
2023-06-02T09:26:09.532Z,29.01
2023-06-02T09:27:03.577Z,23.44
2023-06-02T09:28:02.557Z,33.74
2023-06-02T09:29:02.536Z,42.33
2023-06-02T09:30:02.517Z,61.42
2023-06-02T09:31:02.734Z,65.22
2023-06-02T09:32:02.606Z,29.33
2023-06-02T09:33:02.571Z,20.37
2023-06-02T09:34:02.561Z,1.22
2023-06-02T09:35:02.531Z,18.07
2023-06-02T09:36:02.849Z,14.14
2023-06-02T09:37:02.552Z,12.90
2023-06-02T09:38:02.548Z,12.89
2023-06-02T09:39:02.483Z,22.26
2023-06-02T09:40:02.463Z,20.15
2023-06-02T09:41:02.733Z,12.94
2023-06-02T09:42:02.577Z,1.64
2023-06-02T09:43:02.555Z,9.88
2023-06-02T09:44:02.599Z,12.36
2023-06-02T09:45:02.598Z,9.81
2023-06-02T09:46:03.117Z,20.23
2023-06-02T09:47:02.871Z,24.23
2023-06-02T09:48:02.787Z,11.79
2023-06-02T09:49:02.815Z,17.80
2023-06-02T09:50:02.813Z,16.85
2023-06-02T09:51:02.830Z,6.60
2023-06-02T09:52:02.873Z,6.00
2023-06-02T09:53:02.833Z,13.51
2023-06-02T09:54:02.884Z,24.17
2023-06-02T09:55:04.132Z,13.89
2023-06-02T09:56:02.958Z,17.00
2023-06-02T09:57:03.009Z,24.57
2023-06-02T09:58:03.069Z,22.09
2023-06-02T09:59:03.089Z,21.51
2023-06-02T10:00:03.036Z,26.74
2023-06-02T10:01:03.354Z,26.88
2023-06-02T10:02:03.240Z,32.28
2023-06-02T10:03:03.270Z,32.03
2023-06-02T10:04:03.139Z,36.91
2023-06-02T10:05:03.183Z,37.80
2023-06-02T10:06:03.578Z,40.29
2023-06-02T10:07:03.233Z,37.75
2023-06-02T10:08:03.300Z,36.70
2023-06-02T10:09:03.302Z,39.36
2023-06-02T10:10:03.370Z,33.65
2023-06-02T10:11:03.702Z,21.17
2023-06-02T10:12:03.425Z,17.70
2023-06-02T10:13:03.433Z,14.97
2023-06-02T10:14:03.438Z,14.34
2023-06-02T10:15:03.500Z,11.08
2023-06-02T10:16:03.593Z,14.21
2023-06-02T10:17:03.581Z,15.36
2023-06-02T10:18:11.208Z,16.56
2023-06-02T10:19:03.563Z,16.67
2023-06-02T10:20:03.636Z,16.81
2023-06-02T10:21:03.742Z,17.18
2023-06-02T10:22:03.661Z,15.95
2023-06-02T10:23:03.709Z,15.34
2023-06-02T10:24:03.736Z,18.81
2023-06-02T10:25:03.591Z,25.71
2023-06-02T10:26:03.581Z,21.03
2023-06-02T10:27:03.529Z,18.43
2023-06-02T10:28:03.538Z,17.30
2023-06-02T10:29:03.534Z,22.86
2023-06-02T10:30:03.554Z,30.84
2023-06-02T10:31:03.756Z,37.72
2023-06-02T10:32:03.518Z,52.94
2023-06-02T10:33:03.555Z,37.17
2023-06-02T10:34:03.547Z,37.03
2023-06-02T10:35:03.499Z,38.12
2023-06-02T10:36:07.233Z,36.45
2023-06-02T10:37:03.495Z,40.64
2023-06-02T10:38:03.555Z,43.03
2023-06-02T10:39:03.586Z,44.60
2023-06-02T10:40:03.555Z,45.86
2023-06-02T10:42:30.199Z,50.00
2023-06-02T10:43:22.592Z,50.00
2023-06-02T10:44:22.587Z,50.00
2023-06-02T10:45:22.556Z,50.00
2023-06-02T10:46:22.719Z,50.00
2023-06-02T10:47:22.588Z,50.00
2023-06-02T10:48:22.519Z,38.19
2023-06-02T10:49:22.554Z,64.80
2023-06-02T10:50:22.591Z,72.11
2023-06-02T10:51:22.565Z,49.77
2023-06-02T10:52:22.556Z,102.28
2023-06-02T10:53:22.546Z,49.82
2023-06-02T10:54:22.543Z,126.70
2023-06-02T10:55:22.522Z,138.85
2023-06-02T10:56:22.511Z,149.42
2023-06-02T10:57:22.498Z,150.74
2023-06-02T10:58:22.500Z,112.57
2023-06-02T10:59:22.467Z,101.62
2023-06-02T11:00:22.471Z,137.41
2023-06-02T11:01:22.492Z,101.49
2023-06-02T11:02:22.539Z,105.19
2023-06-02T11:03:22.633Z,65.32
2023-06-02T11:04:22.450Z,52.69
2023-06-02T11:05:22.432Z,0.00
2023-06-02T11:06:22.473Z,19.54
2023-06-02T11:07:22.459Z,42.62
2023-06-02T11:08:22.508Z,49.98
2023-06-02T11:09:22.479Z,92.80
2023-06-02T11:10:22.511Z,130.22
2023-06-02T11:11:22.534Z,107.55
2023-06-02T11:12:22.556Z,147.17
2023-06-02T11:13:22.591Z,99.16
2023-06-02T11:14:22.636Z,51.30
2023-06-02T11:15:22.748Z,91.59
2023-06-02T11:16:24.482Z,100.79
2023-06-02T11:17:22.721Z,27.32
2023-06-02T11:18:22.756Z,110.86
2023-06-02T11:19:22.699Z,124.40
2023-06-02T11:20:22.753Z,90.23
2023-06-02T11:21:24.777Z,94.54
2023-06-02T11:22:22.730Z,49.70
2023-06-02T11:23:22.746Z,0.00
2023-06-02T11:24:22.747Z,0.00
2023-06-02T11:25:22.743Z,0.00
2023-06-02T11:26:22.806Z,11.71
2023-06-02T11:27:22.724Z,16.53
2023-06-02T11:28:22.721Z,6.86
2023-06-02T11:29:22.743Z,37.54
2023-06-02T11:30:22.700Z,82.35
2023-06-02T11:31:22.803Z,156.99
2023-06-02T11:32:22.784Z,211.84
2023-06-02T11:33:24.557Z,247.41
2023-06-02T11:34:22.671Z,188.86
2023-06-02T11:35:22.687Z,200.64
2023-06-02T11:36:22.644Z,188.15
2023-06-02T11:37:22.640Z,184.92
2023-06-02T11:38:22.649Z,182.11
2023-06-02T11:39:24.183Z,171.07
2023-06-02T11:40:22.623Z,153.72
2023-06-02T11:41:22.708Z,156.90
2023-06-02T11:42:22.626Z,145.95
2023-06-02T11:43:22.633Z,127.75
2023-06-02T11:44:22.665Z,127.86
2023-06-02T11:45:22.681Z,117.91
2023-06-02T11:46:22.638Z,105.60
2023-06-02T11:47:24.737Z,93.08
2023-06-02T11:48:22.796Z,110.78
2023-06-02T11:49:22.799Z,101.94
2023-06-02T11:50:22.771Z,91.42
2023-06-02T11:51:22.832Z,66.84
2023-06-02T11:52:22.887Z,82.96
2023-06-02T11:53:24.483Z,99.68
2023-06-02T11:54:23.050Z,85.65
2023-06-02T11:55:23.101Z,97.37
2023-06-02T11:56:23.030Z,74.90
2023-06-02T11:57:23.026Z,69.33
2023-06-02T11:58:23.079Z,78.84
2023-06-02T11:59:24.654Z,71.25
2023-06-02T12:00:23.154Z,82.58
2023-06-02T12:01:23.319Z,75.24
2023-06-02T12:02:23.302Z,86.12
2023-06-02T12:03:23.304Z,87.64
2023-06-02T12:04:23.400Z,50.74
2023-06-02T12:05:24.470Z,84.95
2023-06-02T12:06:23.337Z,49.26
2023-06-02T12:07:23.346Z,61.82
2023-06-02T12:08:23.541Z,68.65
2023-06-02T12:09:23.412Z,114.32
2023-06-02T12:10:31.475Z,110.29
2023-06-02T12:11:24.500Z,84.20
2023-06-02T12:12:23.472Z,101.34
2023-06-02T12:13:23.462Z,106.35
2023-06-02T12:14:23.455Z,111.54
2023-06-02T12:15:23.395Z,121.26
2023-06-02T12:16:23.449Z,134.07
2023-06-02T12:17:25.150Z,146.09
2023-06-02T12:18:23.391Z,150.80
2023-06-02T12:19:23.387Z,127.71
2023-06-02T12:20:23.410Z,112.08
2023-06-02T12:21:24.970Z,89.26
2023-06-02T12:22:23.460Z,135.84
2023-06-02T12:23:23.349Z,118.76
2023-06-02T12:24:23.401Z,112.36
2023-06-02T12:25:23.364Z,105.11
2023-06-02T12:26:23.424Z,106.24
2023-06-02T12:27:25.335Z,95.16
2023-06-02T12:28:23.710Z,102.58
2023-06-02T12:29:23.760Z,89.49
2023-06-02T12:30:23.792Z,105.48
2023-06-02T12:31:23.871Z,105.25
2023-06-02T12:32:23.843Z,107.05
2023-06-02T12:33:24.813Z,115.95
2023-06-02T12:34:23.947Z,99.43
2023-06-02T12:35:23.951Z,97.02
2023-06-02T12:36:24.075Z,88.53
2023-06-02T12:37:23.996Z,93.40
2023-06-02T12:38:24.040Z,94.76
2023-06-02T12:39:24.082Z,112.24